Lentokenttä METAR

 

EFHK - Helsinki/Vantaa
Etäisyys sääasemasta: IKO 36km
Päivitetty: 23/05/2017 17:20
Selkeää
Selkeää
 Tuulen suunta ELO
Tuuli: ELO 4 m/s
Lämpötila: 19°C
Kastepiste: 4°C
Kosteus: 37%
Ilmanpaine: 1008 hPa
Yhteenveto: Selkeää
Näkyvyys: Suurempi kuin 10 km
2017/05/23 14:20 EFHK 231420Z 21007KT 170V250 CAVOK 19/04 Q1008 NOSIG
EETN - Tallinn, Estonia
Etäisyys sääasemasta: EKA 97km
Päivitetty: 23/05/2017 17:20
Heikkoa sadetta, Melko selkeää
Heikkoa sadetta, Melko selkeää
 Tuulen suunta LO
Tuuli: LO 3 m/s
Lämpötila: 12°C
Kastepiste: 9°C
Kosteus: 82%
Ilmanpaine: 1011 hPa
Yhteenveto: Heikkoa sadetta
Pilvisyys: Melko selkeää
Näkyvyys: 10 km
2017/05/23 14:20 EETN 231420Z 23005KT 9999 -RA NSC 12/09 Q1011 NOSIG
 
EFTU - Turku
Etäisyys sääasemasta: LLU 119km
Päivitetty: 23/05/2017 17:20
Melko selkeää
Melko selkeää
 Tuulen suunta L
Tuuli: L 5 m/s
Lämpötila: 17°C
Kastepiste: 5°C
Kosteus: 45%
Ilmanpaine: 1009 hPa
Pilvisyys: Melko selkeää
Näkyvyys: 10 km
Pilviraja: Melko selkeää 1707 m
Melko selkeää 2286 m
2017/05/23 14:20 EFTU 231420Z AUTO 28010KT 9999 SCT056/// SCT075/// 17/05 Q1009
EFLP - Lappeenranta
Etäisyys sääasemasta: IKO 227km
Päivitetty: 23/05/2017 17:20
Selkeää
Selkeää
 Tuulen suunta P
Tuuli: P 2 m/s
Lämpötila: 19°C
Kastepiste: 5°C
Kosteus: 40%
Ilmanpaine: 1007 hPa
Yhteenveto: Selkeää
Näkyvyys: Suurempi kuin 10 km
2017/05/23 14:20 EFLP 231420Z 35004KT 320V020 CAVOK 19/05 Q1007
 
EFJY - Jyvaskylä
Etäisyys sääasemasta: PKO 253km
Päivitetty: 23/05/2017 17:20
Selkeää
Selkeää
 Tuulen suunta PKO
Tuuli: PKO 5 m/s
Lämpötila: 18°C
Kastepiste: 0°C
Kosteus: 30%
Ilmanpaine: 1008 hPa
Yhteenveto: Selkeää
Näkyvyys: Suurempi kuin 10 km
2017/05/23 14:20 EFJY 231420Z AUTO 03009KT CAVOK 18/00 Q1008
EFSA - Savonlinna
Etäisyys sääasemasta: KO 313km
Päivitetty: 23/05/2017 17:20
Selkeää
Selkeää
 Tuulen suunta PLU
Tuuli: PLU 4 m/s
Lämpötila: 19°C
Kastepiste: 4°C
Kosteus: 37%
Ilmanpaine: 1007 hPa
Yhteenveto: Selkeää
Näkyvyys: Suurempi kuin 10 km
2017/05/23 14:20 EFSA 231420Z 34008KT 300V040 CAVOK 19/04 Q1007
 
ESSA - Stockholm/Arlanda, Sweden
Etäisyys sääasemasta: L 363km
Päivitetty: 23/05/2017 17:20
Selkeää
Selkeää
 Tuulen suunta PKO
Tuuli: PKO 4 m/s
Lämpötila: 16°C
Kastepiste: 4°C
Kosteus: 45%
Ilmanpaine: 1012 hPa
Yhteenveto: Selkeää
Näkyvyys: Suurempi kuin 10 km
2017/05/23 14:20 ESSA 231420Z 03008KT 360V070 CAVOK 16/04 Q1012 NOSIG
ESGG - Göteborg, Sweden
Etäisyys sääasemasta: LO 900km
Päivitetty: 23/05/2017 17:20
Selkeää
Selkeää
 Tuulen suunta L
Tuuli: L 4 m/s
Lämpötila: 18°C
Kastepiste: 7°C
Kosteus: 49%
Ilmanpaine: 1013 hPa
Yhteenveto: Selkeää
Näkyvyys: Suurempi kuin 10 km
2017/05/23 14:20 ESGG 231420Z 26007KT 230V300 CAVOK 18/07 Q1013
 
ENGM - Oslo, Norway
Etäisyys sääasemasta: L 950km
Päivitetty: 23/05/2017 17:20
Selkeää
Selkeää
 Tuulen suunta E
Tuuli: E 4 m/s
Lämpötila: 18°C
Kastepiste: 3°C
Kosteus: 37%
Ilmanpaine: 1012 hPa
Yhteenveto: Selkeää
Näkyvyys: Suurempi kuin 10 km
2017/05/23 14:20 ENGM 231420Z 19008KT 130V230 CAVOK 18/03 Q1012 NOSIG